sensor_id;sensor_type;location;lat;lon;timestamp;P1;durP1;ratioP1;P2;durP2;ratioP2
16998;SDS011;10211;49.476;11.010;2023-04-03T00:01:27;1.37;;;1.27;;
16998;SDS011;10211;49.476;11.010;2023-04-03T00:03:54;1.20;;;1.10;;
16998;SDS011;10211;49.476;11.010;2023-04-03T00:06:21;1.33;;;1.20;;
16998;SDS011;10211;49.476;11.010;2023-04-03T00:08:49;1.20;;;1.10;;
16998;SDS011;10211;49.476;11.010;2023-04-03T00:11:16;2.13;;;1.23;;
16998;SDS011;10211;49.476;11.010;2023-04-03T00:13:44;1.30;;;1.20;;
16998;SDS011;10211;49.476;11.010;2023-04-03T00:16:11;1.87;;;1.40;;
16998;SDS011;10211;49.476;11.010;2023-04-03T00:18:38;1.57;;;1.17;;
16998;SDS011;10211;49.476;11.010;2023-04-03T00:21:06;1.27;;;1.17;;
16998;SDS011;10211;49.476;11.010;2023-04-03T00:23:33;1.50;;;1.23;;
16998;SDS011;10211;49.476;11.010;2023-04-03T00:26:02;3.13;;;1.30;;
16998;SDS011;10211;49.476;11.010;2023-04-03T00:28:29;4.00;;;1.30;;
16998;SDS011;10211;49.476;11.010;2023-04-03T00:30:55;1.90;;;1.27;;
16998;SDS011;10211;49.476;11.010;2023-04-03T00:33:22;3.43;;;1.30;;
16998;SDS011;10211;49.476;11.010;2023-04-03T00:35:50;1.40;;;1.30;;
16998;SDS011;10211;49.476;11.010;2023-04-03T00:38:17;1.50;;;1.40;;
16998;SDS011;10211;49.476;11.010;2023-04-03T00:40:44;4.07;;;1.60;;
16998;SDS011;10211;49.476;11.010;2023-04-03T00:43:17;2.27;;;1.60;;
16998;SDS011;10211;49.476;11.010;2023-04-03T00:45:45;2.00;;;1.50;;
16998;SDS011;10211;49.476;11.010;2023-04-03T00:48:14;2.70;;;1.80;;
16998;SDS011;10211;49.476;11.010;2023-04-03T00:50:43;1.90;;;1.37;;
16998;SDS011;10211;49.476;11.010;2023-04-03T00:53:11;3.37;;;1.60;;
16998;SDS011;10211;49.476;11.010;2023-04-03T00:55:40;2.57;;;1.60;;
16998;SDS011;10211;49.476;11.010;2023-04-03T00:58:08;1.73;;;1.30;;
16998;SDS011;10211;49.476;11.010;2023-04-03T01:00:38;1.87;;;1.50;;
16998;SDS011;10211;49.476;11.010;2023-04-03T01:03:08;1.90;;;1.43;;
16998;SDS011;10211;49.476;11.010;2023-04-03T01:05:34;2.07;;;1.53;;
16998;SDS011;10211;49.476;11.010;2023-04-03T01:08:01;1.83;;;1.67;;
16998;SDS011;10211;49.476;11.010;2023-04-03T01:10:28;1.40;;;1.30;;
16998;SDS011;10211;49.476;11.010;2023-04-03T01:12:55;1.20;;;1.10;;
16998;SDS011;10211;49.476;11.010;2023-04-03T01:15:23;1.93;;;1.50;;
16998;SDS011;10211;49.476;11.010;2023-04-03T01:17:55;1.17;;;1.17;;
16998;SDS011;10211;49.476;11.010;2023-04-03T01:20:39;1.70;;;1.60;;
16998;SDS011;10211;49.476;11.010;2023-04-03T01:23:41;2.60;;;1.57;;
16998;SDS011;10211;49.476;11.010;2023-04-03T01:26:27;1.87;;;1.47;;
16998;SDS011;10211;49.476;11.010;2023-04-03T01:28:54;3.13;;;1.60;;
16998;SDS011;10211;49.476;11.010;2023-04-03T01:31:23;1.73;;;1.40;;
16998;SDS011;10211;49.476;11.010;2023-04-03T01:33:53;1.77;;;1.50;;
16998;SDS011;10211;49.476;11.010;2023-04-03T01:36:22;1.83;;;1.40;;
16998;SDS011;10211;49.476;11.010;2023-04-03T01:38:50;1.50;;;1.27;;
16998;SDS011;10211;49.476;11.010;2023-04-03T01:41:17;2.80;;;1.37;;
16998;SDS011;10211;49.476;11.010;2023-04-03T01:43:45;2.23;;;1.43;;
16998;SDS011;10211;49.476;11.010;2023-04-03T01:46:12;2.43;;;1.50;;
16998;SDS011;10211;49.476;11.010;2023-04-03T01:48:40;1.67;;;1.53;;
16998;SDS011;10211;49.476;11.010;2023-04-03T01:51:08;1.20;;;1.10;;
16998;SDS011;10211;49.476;11.010;2023-04-03T01:53:35;2.73;;;1.30;;
16998;SDS011;10211;49.476;11.010;2023-04-03T01:56:02;2.10;;;1.30;;
16998;SDS011;10211;49.476;11.010;2023-04-03T01:58:30;1.80;;;1.37;;
16998;SDS011;10211;49.476;11.010;2023-04-03T02:00:56;1.63;;;1.10;;
16998;SDS011;10211;49.476;11.010;2023-04-03T02:03:23;2.17;;;1.03;;
16998;SDS011;10211;49.476;11.010;2023-04-03T02:05:50;2.03;;;1.37;;
16998;SDS011;10211;49.476;11.010;2023-04-03T02:08:18;1.27;;;1.20;;
16998;SDS011;10211;49.476;11.010;2023-04-03T02:10:46;2.73;;;1.40;;
16998;SDS011;10211;49.476;11.010;2023-04-03T02:13:13;1.23;;;1.13;;
16998;SDS011;10211;49.476;11.010;2023-04-03T02:15:40;1.73;;;1.33;;
16998;SDS011;10211;49.476;11.010;2023-04-03T02:18:07;2.77;;;1.30;;
16998;SDS011;10211;49.476;11.010;2023-04-03T02:20:34;1.47;;;1.37;;
16998;SDS011;10211;49.476;11.010;2023-04-03T02:23:01;1.40;;;1.27;;
16998;SDS011;10211;49.476;11.010;2023-04-03T02:25:31;1.23;;;1.13;;
16998;SDS011;10211;49.476;11.010;2023-04-03T02:27:58;1.87;;;1.40;;
16998;SDS011;10211;49.476;11.010;2023-04-03T02:30:25;1.27;;;1.17;;
16998;SDS011;10211;49.476;11.010;2023-04-03T02:32:52;1.00;;;1.00;;
16998;SDS011;10211;49.476;11.010;2023-04-03T02:35:19;1.10;;;1.00;;
16998;SDS011;10211;49.476;11.010;2023-04-03T02:37:46;1.00;;;1.00;;
16998;SDS011;10211;49.476;11.010;2023-04-03T02:40:13;1.30;;;1.20;;
16998;SDS011;10211;49.476;11.010;2023-04-03T02:42:41;3.73;;;1.63;;
16998;SDS011;10211;49.476;11.010;2023-04-03T02:45:09;4.70;;;1.30;;
16998;SDS011;10211;49.476;11.010;2023-04-03T02:47:36;1.57;;;1.43;;
16998;SDS011;10211;49.476;11.010;2023-04-03T02:50:03;3.27;;;1.40;;
16998;SDS011;10211;49.476;11.010;2023-04-03T02:52:30;2.80;;;1.30;;
16998;SDS011;10211;49.476;11.010;2023-04-03T02:54:57;3.40;;;1.70;;
16998;SDS011;10211;49.476;11.010;2023-04-03T02:57:24;3.23;;;1.50;;
16998;SDS011;10211;49.476;11.010;2023-04-03T02:59:52;3.20;;;1.40;;
16998;SDS011;10211;49.476;11.010;2023-04-03T03:02:19;1.83;;;1.40;;
16998;SDS011;10211;49.476;11.010;2023-04-03T03:04:46;1.13;;;1.03;;
16998;SDS011;10211;49.476;11.010;2023-04-03T03:07:12;1.37;;;1.13;;
16998;SDS011;10211;49.476;11.010;2023-04-03T03:09:39;7.30;;;1.80;;
16998;SDS011;10211;49.476;11.010;2023-04-03T03:12:06;2.33;;;1.33;;
16998;SDS011;10211;49.476;11.010;2023-04-03T03:14:33;3.20;;;1.43;;
16998;SDS011;10211;49.476;11.010;2023-04-03T03:17:01;2.23;;;1.37;;
16998;SDS011;10211;49.476;11.010;2023-04-03T03:19:28;2.13;;;1.43;;
16998;SDS011;10211;49.476;11.010;2023-04-03T03:21:54;1.40;;;1.23;;
16998;SDS011;10211;49.476;11.010;2023-04-03T03:24:22;1.70;;;1.40;;
16998;SDS011;10211;49.476;11.010;2023-04-03T03:26:48;1.50;;;1.40;;
16998;SDS011;10211;49.476;11.010;2023-04-03T03:29:15;3.03;;;1.30;;
16998;SDS011;10211;49.476;11.010;2023-04-03T03:31:42;2.57;;;1.10;;
16998;SDS011;10211;49.476;11.010;2023-04-03T03:34:10;1.67;;;1.57;;
16998;SDS011;10211;49.476;11.010;2023-04-03T03:36:37;2.83;;;2.30;;
16998;SDS011;10211;49.476;11.010;2023-04-03T03:39:05;4.10;;;1.60;;
16998;SDS011;10211;49.476;11.010;2023-04-03T03:41:31;2.70;;;1.70;;
16998;SDS011;10211;49.476;11.010;2023-04-03T03:43:58;2.53;;;1.60;;
16998;SDS011;10211;49.476;11.010;2023-04-03T03:46:25;1.33;;;1.20;;
16998;SDS011;10211;49.476;11.010;2023-04-03T03:48:52;1.73;;;1.30;;
16998;SDS011;10211;49.476;11.010;2023-04-03T03:51:20;2.30;;;1.50;;
16998;SDS011;10211;49.476;11.010;2023-04-03T03:53:47;3.90;;;1.40;;
16998;SDS011;10211;49.476;11.010;2023-04-03T03:56:14;2.67;;;1.57;;
16998;SDS011;10211;49.476;11.010;2023-04-03T03:58:40;4.03;;;1.93;;
16998;SDS011;10211;49.476;11.010;2023-04-03T04:01:07;1.67;;;1.40;;
16998;SDS011;10211;49.476;11.010;2023-04-03T04:03:34;4.43;;;2.00;;
16998;SDS011;10211;49.476;11.010;2023-04-03T04:06:00;2.20;;;1.57;;
16998;SDS011;10211;49.476;11.010;2023-04-03T04:08:29;3.93;;;2.23;;
16998;SDS011;10211;49.476;11.010;2023-04-03T04:10:56;2.97;;;1.90;;
16998;SDS011;10211;49.476;11.010;2023-04-03T04:13:22;3.23;;;1.87;;
16998;SDS011;10211;49.476;11.010;2023-04-03T04:15:49;1.90;;;1.70;;
16998;SDS011;10211;49.476;11.010;2023-04-03T04:18:16;3.10;;;1.73;;
16998;SDS011;10211;49.476;11.010;2023-04-03T04:20:45;2.13;;;1.80;;
16998;SDS011;10211;49.476;11.010;2023-04-03T04:23:11;4.13;;;2.37;;
16998;SDS011;10211;49.476;11.010;2023-04-03T04:25:40;3.13;;;1.70;;
16998;SDS011;10211;49.476;11.010;2023-04-03T04:28:06;1.97;;;1.77;;
16998;SDS011;10211;49.476;11.010;2023-04-03T04:30:33;1.90;;;1.70;;
16998;SDS011;10211;49.476;11.010;2023-04-03T04:33:00;5.10;;;1.83;;
16998;SDS011;10211;49.476;11.010;2023-04-03T04:35:27;3.10;;;1.83;;
16998;SDS011;10211;49.476;11.010;2023-04-03T04:37:53;4.17;;;1.83;;
16998;SDS011;10211;49.476;11.010;2023-04-03T04:40:20;2.03;;;1.83;;
16998;SDS011;10211;49.476;11.010;2023-04-03T04:42:48;2.27;;;1.80;;
16998;SDS011;10211;49.476;11.010;2023-04-03T04:45:15;3.90;;;1.77;;
16998;SDS011;10211;49.476;11.010;2023-04-03T04:47:42;4.93;;;1.90;;
16998;SDS011;10211;49.476;11.010;2023-04-03T04:50:09;3.87;;;2.10;;
16998;SDS011;10211;49.476;11.010;2023-04-03T04:52:36;2.33;;;1.80;;
16998;SDS011;10211;49.476;11.010;2023-04-03T04:55:03;1.57;;;1.47;;
16998;SDS011;10211;49.476;11.010;2023-04-03T04:57:30;3.57;;;1.73;;
16998;SDS011;10211;49.476;11.010;2023-04-03T04:59:58;4.27;;;2.00;;
16998;SDS011;10211;49.476;11.010;2023-04-03T05:02:25;7.80;;;2.07;;
16998;SDS011;10211;49.476;11.010;2023-04-03T05:04:52;3.97;;;1.97;;
16998;SDS011;10211;49.476;11.010;2023-04-03T05:07:19;1.60;;;1.50;;
16998;SDS011;10211;49.476;11.010;2023-04-03T05:09:45;2.40;;;2.13;;
16998;SDS011;10211;49.476;11.010;2023-04-03T05:12:12;3.20;;;2.00;;
16998;SDS011;10211;49.476;11.010;2023-04-03T05:14:39;2.30;;;2.10;;
16998;SDS011;10211;49.476;11.010;2023-04-03T05:17:07;3.77;;;2.07;;
16998;SDS011;10211;49.476;11.010;2023-04-03T05:19:34;4.30;;;2.37;;
16998;SDS011;10211;49.476;11.010;2023-04-03T05:22:01;2.53;;;1.93;;
16998;SDS011;10211;49.476;11.010;2023-04-03T05:24:27;2.23;;;1.80;;
16998;SDS011;10211;49.476;11.010;2023-04-03T05:26:54;2.43;;;2.13;;
16998;SDS011;10211;49.476;11.010;2023-04-03T05:29:21;2.87;;;2.37;;
16998;SDS011;10211;49.476;11.010;2023-04-03T05:31:48;4.40;;;2.20;;
16998;SDS011;10211;49.476;11.010;2023-04-03T05:34:17;3.03;;;2.37;;
16998;SDS011;10211;49.476;11.010;2023-04-03T05:36:43;5.73;;;2.63;;
16998;SDS011;10211;49.476;11.010;2023-04-03T05:39:10;3.33;;;2.67;;
16998;SDS011;10211;49.476;11.010;2023-04-03T05:41:37;2.83;;;2.47;;
16998;SDS011;10211;49.476;11.010;2023-04-03T05:44:04;3.60;;;2.30;;
16998;SDS011;10211;49.476;11.010;2023-04-03T05:46:30;6.07;;;2.50;;
16998;SDS011;10211;49.476;11.010;2023-04-03T05:48:58;3.00;;;2.40;;
16998;SDS011;10211;49.476;11.010;2023-04-03T05:51:28;6.73;;;2.43;;
16998;SDS011;10211;49.476;11.010;2023-04-03T05:53:59;5.40;;;2.77;;
16998;SDS011;10211;49.476;11.010;2023-04-03T05:56:30;3.57;;;2.67;;
16998;SDS011;10211;49.476;11.010;2023-04-03T05:58:57;3.70;;;1.80;;
16998;SDS011;10211;49.476;11.010;2023-04-03T06:01:24;2.83;;;2.07;;
16998;SDS011;10211;49.476;11.010;2023-04-03T06:03:51;4.50;;;2.30;;
16998;SDS011;10211;49.476;11.010;2023-04-03T06:06:19;3.17;;;2.17;;
16998;SDS011;10211;49.476;11.010;2023-04-03T06:08:48;3.67;;;1.90;;
16998;SDS011;10211;49.476;11.010;2023-04-03T06:11:15;4.80;;;2.20;;
16998;SDS011;10211;49.476;11.010;2023-04-03T06:13:41;3.43;;;2.20;;
16998;SDS011;10211;49.476;11.010;2023-04-03T06:16:08;3.27;;;2.10;;
16998;SDS011;10211;49.476;11.010;2023-04-03T06:18:39;2.63;;;1.77;;
16998;SDS011;10211;49.476;11.010;2023-04-03T06:21:06;3.70;;;1.37;;
16998;SDS011;10211;49.476;11.010;2023-04-03T06:23:33;6.47;;;1.70;;
16998;SDS011;10211;49.476;11.010;2023-04-03T06:26:01;5.40;;;1.97;;
16998;SDS011;10211;49.476;11.010;2023-04-03T06:28:27;6.00;;;1.53;;
16998;SDS011;10211;49.476;11.010;2023-04-03T06:30:54;2.63;;;1.33;;
16998;SDS011;10211;49.476;11.010;2023-04-03T06:33:21;4.27;;;1.87;;
16998;SDS011;10211;49.476;11.010;2023-04-03T06:35:47;4.03;;;1.50;;
16998;SDS011;10211;49.476;11.010;2023-04-03T06:38:14;4.57;;;1.83;;
16998;SDS011;10211;49.476;11.010;2023-04-03T06:40:41;2.80;;;1.37;;
16998;SDS011;10211;49.476;11.010;2023-04-03T06:43:10;1.50;;;1.40;;
16998;SDS011;10211;49.476;11.010;2023-04-03T06:45:36;3.20;;;1.27;;
16998;SDS011;10211;49.476;11.010;2023-04-03T06:48:03;2.37;;;1.67;;
16998;SDS011;10211;49.476;11.010;2023-04-03T06:50:30;2.13;;;1.47;;
16998;SDS011;10211;49.476;11.010;2023-04-03T06:52:57;2.07;;;1.60;;
16998;SDS011;10211;49.476;11.010;2023-04-03T06:55:23;5.47;;;2.03;;
16998;SDS011;10211;49.476;11.010;2023-04-03T06:57:51;1.93;;;1.20;;
16998;SDS011;10211;49.476;11.010;2023-04-03T07:00:19;1.80;;;1.50;;
16998;SDS011;10211;49.476;11.010;2023-04-03T07:02:46;3.83;;;1.70;;
16998;SDS011;10211;49.476;11.010;2023-04-03T07:05:13;3.17;;;1.57;;
16998;SDS011;10211;49.476;11.010;2023-04-03T07:07:40;6.50;;;1.87;;
16998;SDS011;10211;49.476;11.010;2023-04-03T07:10:07;7.40;;;1.63;;
16998;SDS011;10211;49.476;11.010;2023-04-03T07:12:35;2.80;;;1.50;;
16998;SDS011;10211;49.476;11.010;2023-04-03T07:15:02;4.47;;;1.70;;
16998;SDS011;10211;49.476;11.010;2023-04-03T07:17:31;3.33;;;1.20;;
16998;SDS011;10211;49.476;11.010;2023-04-03T07:19:58;1.37;;;1.27;;
16998;SDS011;10211;49.476;11.010;2023-04-03T07:22:25;2.60;;;2.00;;
16998;SDS011;10211;49.476;11.010;2023-04-03T07:24:51;5.10;;;2.10;;
16998;SDS011;10211;49.476;11.010;2023-04-03T07:27:18;1.80;;;1.63;;
16998;SDS011;10211;49.476;11.010;2023-04-03T07:29:45;4.03;;;1.60;;
16998;SDS011;10211;49.476;11.010;2023-04-03T07:32:12;2.80;;;2.03;;
16998;SDS011;10211;49.476;11.010;2023-04-03T07:34:40;3.47;;;1.53;;
16998;SDS011;10211;49.476;11.010;2023-04-03T07:37:07;3.27;;;1.53;;
16998;SDS011;10211;49.476;11.010;2023-04-03T07:39:35;4.93;;;2.03;;
16998;SDS011;10211;49.476;11.010;2023-04-03T07:42:01;4.07;;;1.90;;
16998;SDS011;10211;49.476;11.010;2023-04-03T07:44:28;6.40;;;2.27;;
16998;SDS011;10211;49.476;11.010;2023-04-03T07:46:55;3.97;;;1.47;;
16998;SDS011;10211;49.476;11.010;2023-04-03T07:49:22;2.83;;;1.90;;
16998;SDS011;10211;49.476;11.010;2023-04-03T07:51:50;2.83;;;2.00;;
16998;SDS011;10211;49.476;11.010;2023-04-03T07:54:17;2.63;;;1.93;;
16998;SDS011;10211;49.476;11.010;2023-04-03T07:56:44;4.00;;;2.23;;
16998;SDS011;10211;49.476;11.010;2023-04-03T07:59:11;2.83;;;1.80;;
16998;SDS011;10211;49.476;11.010;2023-04-03T08:01:38;4.63;;;1.90;;
16998;SDS011;10211;49.476;11.010;2023-04-03T08:04:05;2.97;;;2.03;;
16998;SDS011;10211;49.476;11.010;2023-04-03T08:06:31;3.07;;;2.03;;
16998;SDS011;10211;49.476;11.010;2023-04-03T08:09:02;4.47;;;2.40;;
16998;SDS011;10211;49.476;11.010;2023-04-03T08:11:29;3.13;;;1.77;;
16998;SDS011;10211;49.476;11.010;2023-04-03T08:13:56;7.50;;;2.40;;
16998;SDS011;10211;49.476;11.010;2023-04-03T08:16:24;3.07;;;1.77;;
16998;SDS011;10211;49.476;11.010;2023-04-03T08:18:51;3.07;;;1.60;;
16998;SDS011;10211;49.476;11.010;2023-04-03T08:21:18;1.87;;;1.77;;
16998;SDS011;10211;49.476;11.010;2023-04-03T08:23:47;2.43;;;1.37;;
16998;SDS011;10211;49.476;11.010;2023-04-03T08:26:16;1.97;;;1.57;;
16998;SDS011;10211;49.476;11.010;2023-04-03T08:28:45;2.90;;;1.63;;
16998;SDS011;10211;49.476;11.010;2023-04-03T08:31:13;2.83;;;1.60;;
16998;SDS011;10211;49.476;11.010;2023-04-03T08:33:42;2.47;;;1.73;;
16998;SDS011;10211;49.476;11.010;2023-04-03T08:36:16;5.57;;;2.00;;
16998;SDS011;10211;49.476;11.010;2023-04-03T08:38:44;3.07;;;1.87;;
16998;SDS011;10211;49.476;11.010;2023-04-03T08:41:13;1.30;;;1.20;;
16998;SDS011;10211;49.476;11.010;2023-04-03T08:43:53;5.43;;;1.70;;
16998;SDS011;10211;49.476;11.010;2023-04-03T08:46:26;1.63;;;1.37;;
16998;SDS011;10211;49.476;11.010;2023-04-03T08:49:04;4.70;;;1.50;;
16998;SDS011;10211;49.476;11.010;2023-04-03T08:51:38;2.53;;;1.60;;
16998;SDS011;10211;49.476;11.010;2023-04-03T08:54:14;4.00;;;1.70;;
16998;SDS011;10211;49.476;11.010;2023-04-03T08:56:50;4.60;;;1.40;;
16998;SDS011;10211;49.476;11.010;2023-04-03T08:59:19;2.60;;;1.37;;
16998;SDS011;10211;49.476;11.010;2023-04-03T09:01:52;2.63;;;1.33;;
16998;SDS011;10211;49.476;11.010;2023-04-03T09:04:20;3.07;;;1.20;;
16998;SDS011;10211;49.476;11.010;2023-04-03T09:06:49;3.80;;;1.60;;
16998;SDS011;10211;49.476;11.010;2023-04-03T09:09:22;10.30;;;1.60;;
16998;SDS011;10211;49.476;11.010;2023-04-03T09:12:00;3.23;;;1.53;;
16998;SDS011;10211;49.476;11.010;2023-04-03T09:14:36;3.87;;;1.60;;
16998;SDS011;10211;49.476;11.010;2023-04-03T09:17:09;2.63;;;1.73;;
16998;SDS011;10211;49.476;11.010;2023-04-03T09:19:44;2.37;;;1.40;;
16998;SDS011;10211;49.476;11.010;2023-04-03T09:22:18;2.20;;;1.50;;
16998;SDS011;10211;49.476;11.010;2023-04-03T09:24:49;3.30;;;1.53;;
16998;SDS011;10211;49.476;11.010;2023-04-03T09:27:25;4.20;;;1.60;;
16998;SDS011;10211;49.476;11.010;2023-04-03T09:29:52;1.80;;;1.13;;
16998;SDS011;10211;49.476;11.010;2023-04-03T09:32:22;1.77;;;1.40;;
16998;SDS011;10211;49.476;11.010;2023-04-03T09:34:53;3.60;;;1.57;;
16998;SDS011;10211;49.476;11.010;2023-04-03T09:37:35;3.50;;;1.97;;
16998;SDS011;10211;49.476;11.010;2023-04-03T09:40:05;3.33;;;1.40;;
16998;SDS011;10211;49.476;11.010;2023-04-03T09:42:55;2.13;;;1.20;;
16998;SDS011;10211;49.476;11.010;2023-04-03T09:45:24;3.53;;;1.40;;
16998;SDS011;10211;49.476;11.010;2023-04-03T09:48:03;2.53;;;1.53;;
16998;SDS011;10211;49.476;11.010;2023-04-03T09:50:32;2.47;;;1.40;;
16998;SDS011;10211;49.476;11.010;2023-04-03T09:52:59;1.87;;;1.23;;
16998;SDS011;10211;49.476;11.010;2023-04-03T09:55:31;4.07;;;1.43;;
16998;SDS011;10211;49.476;11.010;2023-04-03T09:58:00;1.63;;;1.30;;
16998;SDS011;10211;49.476;11.010;2023-04-03T10:00:30;2.20;;;1.20;;
16998;SDS011;10211;49.476;11.010;2023-04-03T10:03:00;2.60;;;1.07;;
16998;SDS011;10211;49.476;11.010;2023-04-03T10:05:28;2.27;;;1.20;;
16998;SDS011;10211;49.476;11.010;2023-04-03T10:08:10;7.93;;;1.47;;
16998;SDS011;10211;49.476;11.010;2023-04-03T10:10:45;1.13;;;1.03;;
16998;SDS011;10211;49.476;11.010;2023-04-03T10:13:16;2.83;;;0.90;;
16998;SDS011;10211;49.476;11.010;2023-04-03T10:15:46;2.60;;;0.90;;
16998;SDS011;10211;49.476;11.010;2023-04-03T10:18:23;4.83;;;1.10;;
16998;SDS011;10211;49.476;11.010;2023-04-03T10:20:57;1.70;;;1.00;;
16998;SDS011;10211;49.476;11.010;2023-04-03T10:23:33;3.90;;;1.60;;
16998;SDS011;10211;49.476;11.010;2023-04-03T10:26:09;1.43;;;1.33;;
16998;SDS011;10211;49.476;11.010;2023-04-03T10:28:45;2.17;;;1.17;;
16998;SDS011;10211;49.476;11.010;2023-04-03T10:31:19;2.23;;;1.10;;
16998;SDS011;10211;49.476;11.010;2023-04-03T10:33:53;2.57;;;1.27;;
16998;SDS011;10211;49.476;11.010;2023-04-03T10:36:28;1.30;;;1.10;;
16998;SDS011;10211;49.476;11.010;2023-04-03T10:39:04;5.07;;;1.23;;
16998;SDS011;10211;49.476;11.010;2023-04-03T10:41:43;2.30;;;1.37;;
16998;SDS011;10211;49.476;11.010;2023-04-03T10:44:20;1.97;;;1.50;;
16998;SDS011;10211;49.476;11.010;2023-04-03T10:46:57;5.80;;;1.63;;
16998;SDS011;10211;49.476;11.010;2023-04-03T10:49:34;1.90;;;1.20;;
16998;SDS011;10211;49.476;11.010;2023-04-03T10:52:13;1.43;;;1.30;;
16998;SDS011;10211;49.476;11.010;2023-04-03T10:54:45;1.70;;;1.30;;
16998;SDS011;10211;49.476;11.010;2023-04-03T10:57:17;3.60;;;1.80;;
16998;SDS011;10211;49.476;11.010;2023-04-03T10:59:47;7.23;;;3.67;;
16998;SDS011;10211;49.476;11.010;2023-04-03T11:02:19;3.60;;;2.20;;
16998;SDS011;10211;49.476;11.010;2023-04-03T11:04:51;7.43;;;2.60;;
16998;SDS011;10211;49.476;11.010;2023-04-03T11:07:23;3.60;;;1.27;;
16998;SDS011;10211;49.476;11.010;2023-04-03T11:09:53;2.80;;;1.20;;
16998;SDS011;10211;49.476;11.010;2023-04-03T11:12:25;1.50;;;1.20;;
16998;SDS011;10211;49.476;11.010;2023-04-03T11:15:11;2.40;;;1.33;;
16998;SDS011;10211;49.476;11.010;2023-04-03T11:17:41;1.93;;;1.03;;
16998;SDS011;10211;49.476;11.010;2023-04-03T11:20:16;2.30;;;1.60;;
16998;SDS011;10211;49.476;11.010;2023-04-03T11:22:47;1.17;;;0.90;;
16998;SDS011;10211;49.476;11.010;2023-04-03T11:25:18;1.40;;;1.23;;
16998;SDS011;10211;49.476;11.010;2023-04-03T11:27:48;2.00;;;1.20;;
16998;SDS011;10211;49.476;11.010;2023-04-03T11:30:22;1.20;;;1.00;;
16998;SDS011;10211;49.476;11.010;2023-04-03T11:32:55;2.40;;;1.50;;
16998;SDS011;10211;49.476;11.010;2023-04-03T11:35:43;1.40;;;1.30;;
16998;SDS011;10211;49.476;11.010;2023-04-03T11:38:14;2.67;;;1.40;;
16998;SDS011;10211;49.476;11.010;2023-04-03T11:40:47;4.20;;;1.60;;
16998;SDS011;10211;49.476;11.010;2023-04-03T11:43:20;1.90;;;1.10;;
16998;SDS011;10211;49.476;11.010;2023-04-03T11:45:51;2.43;;;1.60;;
16998;SDS011;10211;49.476;11.010;2023-04-03T12:00:46;2.10;;;1.20;;
16998;SDS011;10211;49.476;11.010;2023-04-03T12:03:31;1.33;;;0.80;;
16998;SDS011;10211;49.476;11.010;2023-04-03T12:09:21;2.40;;;1.10;;
16998;SDS011;10211;49.476;11.010;2023-04-03T12:11:51;2.63;;;1.47;;
16998;SDS011;10211;49.476;11.010;2023-04-03T12:14:18;2.07;;;1.10;;
16998;SDS011;10211;49.476;11.010;2023-04-03T12:16:49;1.80;;;1.10;;
16998;SDS011;10211;49.476;11.010;2023-04-03T12:19:30;2.20;;;1.20;;
16998;SDS011;10211;49.476;11.010;2023-04-03T12:22:06;2.60;;;1.23;;
16998;SDS011;10211;49.476;11.010;2023-04-03T12:24:38;2.83;;;1.20;;
16998;SDS011;10211;49.476;11.010;2023-04-03T12:27:26;1.90;;;1.17;;
16998;SDS011;10211;49.476;11.010;2023-04-03T12:29:59;2.13;;;1.40;;
16998;SDS011;10211;49.476;11.010;2023-04-03T12:32:37;2.57;;;1.20;;
16998;SDS011;10211;49.476;11.010;2023-04-03T12:35:17;1.30;;;1.03;;
16998;SDS011;10211;49.476;11.010;2023-04-03T12:40:58;3.27;;;1.40;;
16998;SDS011;10211;49.476;11.010;2023-04-03T12:43:41;1.87;;;1.00;;
16998;SDS011;10211;49.476;11.010;2023-04-03T12:46:17;4.07;;;1.07;;
16998;SDS011;10211;49.476;11.010;2023-04-03T12:48:49;2.07;;;1.17;;
16998;SDS011;10211;49.476;11.010;2023-04-03T12:51:19;1.00;;;1.00;;
16998;SDS011;10211;49.476;11.010;2023-04-03T12:53:49;1.17;;;1.03;;
16998;SDS011;10211;49.476;11.010;2023-04-03T12:56:19;1.60;;;1.10;;
16998;SDS011;10211;49.476;11.010;2023-04-03T12:58:51;0.87;;;0.87;;
16998;SDS011;10211;49.476;11.010;2023-04-03T13:01:20;1.23;;;1.00;;
16998;SDS011;10211;49.476;11.010;2023-04-03T13:03:51;1.77;;;1.33;;
16998;SDS011;10211;49.476;11.010;2023-04-03T13:06:21;1.33;;;1.20;;
16998;SDS011;10211;49.476;11.010;2023-04-03T13:08:50;2.03;;;1.03;;
16998;SDS011;10211;49.476;11.010;2023-04-03T13:11:18;1.50;;;1.10;;
16998;SDS011;10211;49.476;11.010;2023-04-03T13:13:54;1.93;;;1.20;;
16998;SDS011;10211;49.476;11.010;2023-04-03T13:16:22;2.30;;;1.20;;
16998;SDS011;10211;49.476;11.010;2023-04-03T13:18:51;1.70;;;1.43;;
16998;SDS011;10211;49.476;11.010;2023-04-03T13:21:20;2.53;;;1.37;;
16998;SDS011;10211;49.476;11.010;2023-04-03T13:23:50;3.50;;;1.33;;
16998;SDS011;10211;49.476;11.010;2023-04-03T13:26:20;1.63;;;1.00;;
16998;SDS011;10211;49.476;11.010;2023-04-03T13:28:49;1.20;;;1.10;;
16998;SDS011;10211;49.476;11.010;2023-04-03T13:31:19;3.00;;;1.83;;
16998;SDS011;10211;49.476;11.010;2023-04-03T13:33:55;1.33;;;1.10;;
16998;SDS011;10211;49.476;11.010;2023-04-03T13:36:24;1.40;;;1.20;;
16998;SDS011;10211;49.476;11.010;2023-04-03T13:38:58;3.63;;;1.17;;
16998;SDS011;10211;49.476;11.010;2023-04-03T13:41:29;3.17;;;1.37;;
16998;SDS011;10211;49.476;11.010;2023-04-03T13:43:57;5.30;;;1.00;;
16998;SDS011;10211;49.476;11.010;2023-04-03T13:46:41;2.20;;;1.13;;
16998;SDS011;10211;49.476;11.010;2023-04-03T13:49:18;1.70;;;1.10;;
16998;SDS011;10211;49.476;11.010;2023-04-03T13:51:46;1.83;;;1.30;;
16998;SDS011;10211;49.476;11.010;2023-04-03T13:54:17;1.67;;;1.00;;
16998;SDS011;10211;49.476;11.010;2023-04-03T13:56:45;1.30;;;1.20;;
16998;SDS011;10211;49.476;11.010;2023-04-03T13:59:22;1.00;;;1.00;;
16998;SDS011;10211;49.476;11.010;2023-04-03T14:01:53;2.93;;;1.27;;
16998;SDS011;10211;49.476;11.010;2023-04-03T14:04:44;1.37;;;1.20;;
16998;SDS011;10211;49.476;11.010;2023-04-03T14:07:15;2.00;;;1.37;;
16998;SDS011;10211;49.476;11.010;2023-04-03T14:09:45;2.43;;;1.70;;
16998;SDS011;10211;49.476;11.010;2023-04-03T14:12:13;2.57;;;1.07;;
16998;SDS011;10211;49.476;11.010;2023-04-03T14:14:42;3.20;;;1.30;;
16998;SDS011;10211;49.476;11.010;2023-04-03T14:17:13;2.10;;;1.17;;
16998;SDS011;10211;49.476;11.010;2023-04-03T14:19:42;3.70;;;1.40;;
16998;SDS011;10211;49.476;11.010;2023-04-03T14:22:11;4.77;;;1.77;;
16998;SDS011;10211;49.476;11.010;2023-04-03T14:24:41;1.63;;;1.00;;
16998;SDS011;10211;49.476;11.010;2023-04-03T14:27:11;2.47;;;1.30;;
16998;SDS011;10211;49.476;11.010;2023-04-03T14:29:43;1.23;;;0.90;;
16998;SDS011;10211;49.476;11.010;2023-04-03T14:32:10;1.70;;;1.20;;
16998;SDS011;10211;49.476;11.010;2023-04-03T14:34:38;1.10;;;1.10;;
16998;SDS011;10211;49.476;11.010;2023-04-03T14:37:08;1.73;;;1.30;;
16998;SDS011;10211;49.476;11.010;2023-04-03T14:39:36;2.17;;;1.00;;
16998;SDS011;10211;49.476;11.010;2023-04-03T14:42:03;1.40;;;1.20;;
16998;SDS011;10211;49.476;11.010;2023-04-03T14:44:30;2.77;;;1.37;;
16998;SDS011;10211;49.476;11.010;2023-04-03T14:46:57;2.20;;;1.30;;
16998;SDS011;10211;49.476;11.010;2023-04-03T14:49:25;4.00;;;1.23;;
16998;SDS011;10211;49.476;11.010;2023-04-03T14:51:54;2.13;;;1.13;;
16998;SDS011;10211;49.476;11.010;2023-04-03T14:54:22;1.20;;;1.10;;
16998;SDS011;10211;49.476;11.010;2023-04-03T14:56:53;1.53;;;1.30;;
16998;SDS011;10211;49.476;11.010;2023-04-03T14:59:20;2.10;;;1.17;;
16998;SDS011;10211;49.476;11.010;2023-04-03T15:01:48;3.90;;;1.53;;
16998;SDS011;10211;49.476;11.010;2023-04-03T15:04:15;1.13;;;1.00;;
16998;SDS011;10211;49.476;11.010;2023-04-03T15:06:44;2.03;;;1.27;;